createdAt,value
2023-01-17T00:00:30.890Z,97267.41
2023-01-17T00:02:57.673Z,97267.38
2023-01-17T00:05:42.893Z,97268.22
2023-01-17T00:08:28.298Z,97269.19
2023-01-17T00:10:55.078Z,97273.78
2023-01-17T00:13:21.950Z,97269.84
2023-01-17T00:15:48.752Z,97269.00
2023-01-17T00:18:16.946Z,97272.41
2023-01-17T00:21:02.565Z,97264.69
2023-01-17T00:23:48.014Z,97267.69
2023-01-17T00:26:14.777Z,97266.59
2023-01-17T00:28:41.473Z,97275.56
2023-01-17T00:31:08.218Z,97265.16
2023-01-17T00:33:34.994Z,97266.91
2023-01-17T00:36:01.709Z,97266.94
2023-01-17T00:38:28.437Z,97260.56
2023-01-17T00:40:55.162Z,97252.34
2023-01-17T00:43:40.369Z,97253.34
2023-01-17T00:46:25.853Z,97255.81
2023-01-17T00:49:11.092Z,97259.03
2023-01-17T00:51:56.450Z,97262.06
2023-01-17T00:54:41.727Z,97268.31
2023-01-17T00:57:26.991Z,97275.19
2023-01-17T01:00:12.385Z,97276.41
2023-01-17T01:02:57.747Z,97263.53
2023-01-17T01:05:43.176Z,97271.06
2023-01-17T01:08:28.720Z,97271.91
2023-01-17T01:11:14.088Z,97272.44
2023-01-17T01:13:59.542Z,97275.72
2023-01-17T01:16:44.796Z,97278.47
2023-01-17T01:19:30.334Z,97278.06
2023-01-17T01:22:15.648Z,97283.19
2023-01-17T01:25:00.959Z,97288.94
2023-01-17T01:27:46.315Z,97288.84
2023-01-17T01:30:31.648Z,97290.97
2023-01-17T01:33:17.014Z,97294.59
2023-01-17T01:35:43.836Z,97301.06
2023-01-17T01:38:10.626Z,97295.16
2023-01-17T01:40:37.355Z,97306.78
2023-01-17T01:43:05.889Z,97310.91
2023-01-17T01:45:32.673Z,97302.97
2023-01-17T01:47:59.471Z,97299.91
2023-01-17T01:50:26.227Z,97309.56
2023-01-17T01:52:52.974Z,97319.28
2023-01-17T01:55:19.746Z,97313.28
2023-01-17T01:57:46.758Z,97316.03
2023-01-17T02:00:14.473Z,97317.69
2023-01-17T02:02:41.211Z,97323.50
2023-01-17T02:05:07.960Z,97322.88
2023-01-17T02:07:34.722Z,97329.56
2023-01-17T02:10:01.455Z,97324.47
2023-01-17T02:12:28.303Z,97322.00
2023-01-17T02:14:55.422Z,97323.00
2023-01-17T02:17:22.153Z,97326.78
2023-01-17T02:19:48.907Z,97322.00
2023-01-17T02:22:15.634Z,97324.56
2023-01-17T02:24:42.382Z,97330.84
2023-01-17T02:27:09.130Z,97323.91
2023-01-17T02:29:35.864Z,97339.31
2023-01-17T02:32:03.149Z,97331.19
2023-01-17T02:34:29.924Z,97333.16
2023-01-17T02:36:57.607Z,97332.97
2023-01-17T02:39:24.395Z,97333.25
2023-01-17T02:41:51.140Z,97340.13
2023-01-17T02:44:17.885Z,97339.31
2023-01-17T02:46:44.755Z,97347.53
2023-01-17T02:49:11.623Z,97347.13
2023-01-17T02:51:38.858Z,97356.19
2023-01-17T02:54:05.584Z,97351.44
2023-01-17T02:56:32.694Z,97352.06
2023-01-17T02:58:59.523Z,97356.81
2023-01-17T03:01:26.402Z,97367.38
2023-01-17T03:03:53.193Z,97369.47
2023-01-17T03:06:19.966Z,97373.41
2023-01-17T03:08:46.726Z,97375.91
2023-01-17T03:11:13.523Z,97379.28
2023-01-17T03:13:41.083Z,97380.31
2023-01-17T03:16:07.918Z,97381.94
2023-01-17T03:18:34.814Z,97373.59
2023-01-17T03:21:01.614Z,97371.94
2023-01-17T03:23:28.475Z,97379.19
2023-01-17T03:25:55.277Z,97396.03
2023-01-17T03:28:22.032Z,97401.25
2023-01-17T03:30:48.854Z,97401.69
2023-01-17T03:33:15.639Z,97399.00
2023-01-17T03:35:42.361Z,97397.75
2023-01-17T03:38:09.094Z,97401.25
2023-01-17T03:40:35.825Z,97403.63
2023-01-17T03:43:02.545Z,97419.09
2023-01-17T03:45:29.323Z,97427.47
2023-01-17T03:47:57.647Z,97431.88
2023-01-17T03:50:24.379Z,97445.56
2023-01-17T03:52:51.220Z,97439.28
2023-01-17T03:55:17.965Z,97450.56
2023-01-17T03:57:44.693Z,97453.13
2023-01-17T04:00:11.421Z,97450.47
2023-01-17T04:02:38.265Z,97462.56
2023-01-17T04:05:05.149Z,97454.25
2023-01-17T04:07:31.874Z,97456.84
2023-01-17T04:09:58.622Z,97453.22
2023-01-17T04:12:25.437Z,97451.06
2023-01-17T04:14:52.199Z,97457.44
2023-01-17T04:17:18.959Z,97468.03
2023-01-17T04:19:45.693Z,97470.31
2023-01-17T04:22:12.424Z,97464.72
2023-01-17T04:24:39.245Z,97477.28
2023-01-17T04:27:06.103Z,97471.84
2023-01-17T04:29:32.934Z,97471.28
2023-01-17T04:31:59.764Z,97466.94
2023-01-17T04:34:26.818Z,97479.47
2023-01-17T04:36:53.567Z,97482.81
2023-01-17T04:39:20.347Z,97471.72
2023-01-17T04:41:47.148Z,97488.84
2023-01-17T04:44:13.927Z,97494.22
2023-01-17T04:46:40.683Z,97500.31
2023-01-17T04:49:07.405Z,97497.34
2023-01-17T04:51:34.185Z,97490.63
2023-01-17T04:54:00.947Z,97497.41
2023-01-17T04:56:27.750Z,97493.09
2023-01-17T04:58:54.520Z,97504.13
2023-01-17T05:01:21.426Z,97502.31
2023-01-17T05:03:48.213Z,97514.72
2023-01-17T05:06:14.960Z,97522.19
2023-01-17T05:08:41.714Z,97520.94
2023-01-17T05:11:08.443Z,97517.84
2023-01-17T05:13:35.172Z,97531.91
2023-01-17T05:16:02.019Z,97535.19
2023-01-17T05:18:28.861Z,97539.28
2023-01-17T05:20:55.596Z,97548.22
2023-01-17T05:23:22.333Z,97540.81
2023-01-17T05:25:49.057Z,97544.16
2023-01-17T05:28:15.778Z,97540.47
2023-01-17T05:30:42.590Z,97538.69
2023-01-17T05:33:10.153Z,97543.50
2023-01-17T05:35:36.983Z,97538.13
2023-01-17T05:38:03.812Z,97545.41
2023-01-17T05:40:30.873Z,97553.22
2023-01-17T05:42:57.685Z,97560.50
2023-01-17T05:45:24.510Z,97568.63
2023-01-17T05:47:51.226Z,97578.16
2023-01-17T05:50:18.125Z,97578.88
2023-01-17T05:52:44.990Z,97577.72
2023-01-17T05:55:11.728Z,97582.59
2023-01-17T05:57:38.486Z,97580.78
2023-01-17T06:00:05.232Z,97589.97
2023-01-17T06:02:31.977Z,97589.88
2023-01-17T06:04:58.724Z,97593.69
2023-01-17T06:07:25.522Z,97601.84
2023-01-17T06:09:52.250Z,97600.66
2023-01-17T06:12:19.769Z,97609.84
2023-01-17T06:14:47.773Z,97610.31
2023-01-17T06:17:14.517Z,97628.34
2023-01-17T06:19:41.252Z,97629.19
2023-01-17T06:22:08.200Z,97629.81
2023-01-17T06:24:34.986Z,97629.28
2023-01-17T06:27:01.770Z,97634.09
2023-01-17T06:29:28.506Z,97640.81
2023-01-17T06:31:55.265Z,97635.88
2023-01-17T06:34:22.034Z,97646.69
2023-01-17T06:36:48.811Z,97647.13
2023-01-17T06:39:15.559Z,97654.78
2023-01-17T06:41:42.906Z,97648.91
2023-01-17T06:44:09.762Z,97644.97
2023-01-17T06:46:36.591Z,97656.78
2023-01-17T06:49:03.337Z,97655.25
2023-01-17T06:51:30.120Z,97659.28
2023-01-17T06:53:56.847Z,97664.56
2023-01-17T06:56:23.676Z,97673.59
2023-01-17T06:58:50.595Z,97677.75
2023-01-17T07:01:17.458Z,97689.00
2023-01-17T07:03:44.384Z,97694.09
2023-01-17T07:06:11.479Z,97702.28
2023-01-17T07:08:38.303Z,97705.81
2023-01-17T07:11:05.102Z,97703.00
2023-01-17T07:13:31.872Z,97706.91
2023-01-17T07:15:58.661Z,97710.09
2023-01-17T07:18:25.402Z,97720.72
2023-01-17T07:20:52.171Z,97726.56
2023-01-17T07:23:19.275Z,97727.31
2023-01-17T07:25:46.006Z,97741.38
2023-01-17T07:28:12.746Z,97734.88
2023-01-17T07:30:39.487Z,97741.28
2023-01-17T07:33:06.313Z,97755.22
2023-01-17T07:35:33.099Z,97751.94
2023-01-17T07:38:00.013Z,97762.28
2023-01-17T07:40:27.094Z,97772.25
2023-01-17T07:42:54.175Z,97779.84
2023-01-17T07:45:21.742Z,97784.03
2023-01-17T07:47:49.887Z,97788.25
2023-01-17T07:50:16.718Z,97797.97
2023-01-17T07:52:43.457Z,97802.31
2023-01-17T07:55:10.369Z,97822.56
2023-01-17T07:57:37.138Z,97826.50
2023-01-17T08:00:03.888Z,97834.09
2023-01-17T08:02:30.691Z,97835.56
2023-01-17T08:04:57.444Z,97835.94
2023-01-17T08:07:24.184Z,97836.91
2023-01-17T08:09:51.760Z,97828.25
2023-01-17T08:12:18.519Z,97827.19
2023-01-17T08:14:45.254Z,97833.53
2023-01-17T08:17:12.010Z,97834.94
2023-01-17T08:19:38.747Z,97836.19
2023-01-17T08:22:05.513Z,97841.28
2023-01-17T08:24:32.259Z,97843.88
2023-01-17T08:26:59.102Z,97847.88
2023-01-17T08:29:25.900Z,97846.16
2023-01-17T08:31:52.679Z,97852.28
2023-01-17T08:34:19.538Z,97856.03
2023-01-17T08:36:47.780Z,97859.63
2023-01-17T08:39:14.545Z,97868.59
2023-01-17T08:41:41.375Z,97858.56
2023-01-17T08:44:08.106Z,97874.09
2023-01-17T08:46:34.906Z,97867.97
2023-01-17T08:49:02.635Z,97873.84
2023-01-17T08:51:29.766Z,97880.44
2023-01-17T08:53:56.516Z,97881.63
2023-01-17T08:56:27.217Z,97888.63
2023-01-17T08:58:53.985Z,97898.84
2023-01-17T09:01:20.818Z,97904.28
2023-01-17T09:03:47.604Z,97903.13
2023-01-17T09:06:14.330Z,97902.31
2023-01-17T09:08:41.069Z,97906.66
2023-01-17T09:11:07.864Z,97909.13
2023-01-17T09:13:34.604Z,97914.69
2023-01-17T09:16:01.332Z,97920.28
2023-01-17T09:18:28.209Z,97924.00
2023-01-17T09:20:55.229Z,97923.38
2023-01-17T09:23:22.162Z,97938.59
2023-01-17T09:25:48.938Z,97943.81
2023-01-17T09:28:15.717Z,97954.19
2023-01-17T09:30:42.493Z,97956.59
2023-01-17T09:33:09.303Z,97958.69
2023-01-17T09:35:36.041Z,97964.53
2023-01-17T09:38:02.758Z,97965.50
2023-01-17T09:40:29.591Z,97966.91
2023-01-17T09:42:57.940Z,97964.97
2023-01-17T09:45:25.417Z,97962.75
2023-01-17T09:47:52.271Z,97972.22
2023-01-17T09:50:19.025Z,97967.09
2023-01-17T09:52:45.964Z,97975.88
2023-01-17T09:55:12.751Z,97980.19
2023-01-17T09:57:39.550Z,97982.28
2023-01-17T10:00:06.406Z,97982.22
2023-01-17T10:02:33.261Z,97987.13
2023-01-17T10:05:00.140Z,97985.63
2023-01-17T10:07:26.986Z,97997.94
2023-01-17T10:09:53.766Z,98002.47
2023-01-17T10:12:20.497Z,98011.22
2023-01-17T10:14:47.279Z,98010.19
2023-01-17T10:17:15.985Z,98018.78
2023-01-17T10:19:42.718Z,98018.66
2023-01-17T10:22:10.142Z,98011.91
2023-01-17T10:24:37.029Z,98009.13
2023-01-17T10:27:03.806Z,98013.94
2023-01-17T10:29:30.674Z,98019.91
2023-01-17T10:31:57.563Z,98000.59
2023-01-17T10:34:24.288Z,97998.88
2023-01-17T10:36:51.067Z,98010.03
2023-01-17T10:39:17.818Z,98001.09
2023-01-17T10:41:44.617Z,98008.59
2023-01-17T10:44:11.401Z,98002.22
2023-01-17T10:46:38.170Z,98014.94
2023-01-17T10:49:05.007Z,98016.97
2023-01-17T10:51:31.877Z,98022.78
2023-01-17T10:54:00.602Z,98016.25
2023-01-17T10:56:28.554Z,98018.34
2023-01-17T10:58:55.305Z,98017.09
2023-01-17T11:01:22.318Z,98014.75
2023-01-17T11:03:49.213Z,98019.06
2023-01-17T11:06:16.142Z,98016.78
2023-01-17T11:08:42.908Z,98015.63
2023-01-17T11:11:09.658Z,98021.53
2023-01-17T11:13:36.411Z,98020.94
2023-01-17T11:16:03.304Z,98016.88
2023-01-17T11:18:30.088Z,98024.00
2023-01-17T11:20:56.832Z,98019.09
2023-01-17T11:23:23.588Z,98017.41
2023-01-17T11:25:50.432Z,98019.88
2023-01-17T11:28:17.180Z,98025.84
2023-01-17T11:30:44.030Z,98026.13
2023-01-17T11:33:10.789Z,98020.13
2023-01-17T11:35:37.527Z,98028.19
2023-01-17T11:38:04.649Z,98035.75
2023-01-17T11:40:31.480Z,98029.63
2023-01-17T11:42:58.239Z,98021.03
2023-01-17T11:45:25.120Z,98027.22
2023-01-17T11:47:51.866Z,98020.00
2023-01-17T11:50:18.608Z,98023.53
2023-01-17T11:52:45.410Z,98032.41
2023-01-17T11:55:13.078Z,98031.72
2023-01-17T11:57:39.809Z,98033.94
2023-01-17T12:00:07.427Z,98029.03
2023-01-17T12:02:34.166Z,98029.41
2023-01-17T12:05:00.961Z,98023.72
2023-01-17T12:07:27.785Z,98035.38
2023-01-17T12:09:54.707Z,98040.56
2023-01-17T12:12:40.243Z,98040.06
2023-01-17T12:15:07.288Z,98041.25
2023-01-17T12:17:34.061Z,98040.56
2023-01-17T12:20:01.130Z,98033.59
2023-01-17T12:22:28.020Z,98038.41
2023-01-17T12:24:54.791Z,98033.88
2023-01-17T12:27:22.793Z,98044.53
2023-01-17T12:29:49.598Z,98055.56
2023-01-17T12:32:16.347Z,98056.13
2023-01-17T12:34:43.087Z,98063.97
2023-01-17T12:37:09.867Z,98060.94
2023-01-17T12:39:36.637Z,98069.31
2023-01-17T12:42:03.431Z,98067.81
2023-01-17T12:44:30.270Z,98058.97
2023-01-17T12:46:57.147Z,98062.13
2023-01-17T12:49:23.973Z,98069.09
2023-01-17T12:51:50.910Z,98075.41
2023-01-17T12:54:17.676Z,98078.00
2023-01-17T12:56:44.510Z,98075.94
2023-01-17T12:59:11.258Z,98076.91
2023-01-17T13:01:42.890Z,98078.47
2023-01-17T13:04:09.729Z,98080.00
2023-01-17T13:06:36.491Z,98072.22
2023-01-17T13:09:03.314Z,98083.16
2023-01-17T13:11:30.268Z,98074.88
2023-01-17T13:14:00.057Z,98089.56
2023-01-17T13:16:26.844Z,98090.06
2023-01-17T13:18:53.696Z,98091.34
2023-01-17T13:21:20.582Z,98095.16
2023-01-17T13:23:47.330Z,98097.28
2023-01-17T13:26:14.237Z,98105.84
2023-01-17T13:28:40.987Z,98106.66
2023-01-17T13:31:07.954Z,98108.19
2023-01-17T13:33:34.803Z,98110.19
2023-01-17T13:36:01.557Z,98112.78
2023-01-17T13:38:28.571Z,98122.97
2023-01-17T13:40:55.482Z,98116.91
2023-01-17T13:43:22.853Z,98122.03
2023-01-17T13:45:50.264Z,98127.75
2023-01-17T13:48:17.976Z,98133.41
2023-01-17T13:50:44.729Z,98128.13
2023-01-17T13:53:11.538Z,98131.91
2023-01-17T13:55:38.326Z,98131.78
2023-01-17T13:58:05.081Z,98138.31
2023-01-17T14:00:31.864Z,98142.16
2023-01-17T14:02:58.629Z,98147.25
2023-01-17T14:05:25.503Z,98142.94
2023-01-17T14:07:52.241Z,98131.75
2023-01-17T14:10:18.982Z,98140.63
2023-01-17T14:12:45.716Z,98134.44
2023-01-17T14:15:12.452Z,98140.88
2023-01-17T14:17:39.241Z,98147.91
2023-01-17T14:20:05.979Z,98145.66
2023-01-17T14:22:32.784Z,98149.94
2023-01-17T14:24:59.528Z,98154.75
2023-01-17T14:27:26.299Z,98157.19
2023-01-17T14:29:53.257Z,98162.31
2023-01-17T14:32:20.207Z,98161.63
2023-01-17T14:34:46.936Z,98167.13
2023-01-17T14:37:13.780Z,98168.16
2023-01-17T14:39:40.551Z,98165.88
2023-01-17T14:42:07.301Z,98172.72
2023-01-17T14:44:34.393Z,98167.91
2023-01-17T14:47:01.183Z,98170.03
2023-01-17T14:49:27.947Z,98168.31
2023-01-17T14:51:54.675Z,98175.81
2023-01-17T14:54:21.474Z,98174.22
2023-01-17T14:56:48.383Z,98175.47
2023-01-17T14:59:16.820Z,98176.41
2023-01-17T15:01:50.051Z,98179.06
2023-01-17T15:04:22.033Z,98178.44
2023-01-17T15:06:48.790Z,98183.28
2023-01-17T15:09:15.680Z,98188.47
2023-01-17T15:11:42.473Z,98190.31
2023-01-17T15:14:09.265Z,98189.72
2023-01-17T15:16:36.189Z,98193.50
2023-01-17T15:19:02.991Z,98193.34
2023-01-17T15:21:29.894Z,98191.06
2023-01-17T15:23:56.721Z,98191.06
2023-01-17T15:26:23.523Z,98197.59
2023-01-17T15:28:50.366Z,98196.38
2023-01-17T15:31:17.119Z,98195.00
2023-01-17T15:33:43.961Z,98197.66
2023-01-17T15:36:11.147Z,98203.47
2023-01-17T15:38:39.233Z,98206.13
2023-01-17T15:41:06.206Z,98213.72
2023-01-17T15:43:35.754Z,98214.19
2023-01-17T15:46:03.452Z,98213.50
2023-01-17T15:48:30.310Z,98212.13
2023-01-17T15:50:57.613Z,98214.00
2023-01-17T15:53:24.388Z,98211.44
2023-01-17T15:55:51.152Z,98219.09
2023-01-17T15:58:18.025Z,98215.69
2023-01-17T16:00:46.819Z,98206.00
2023-01-17T16:03:13.681Z,98212.78
2023-01-17T16:05:43.394Z,98212.47
2023-01-17T16:08:10.237Z,98215.19
2023-01-17T16:10:37.688Z,98212.75
2023-01-17T16:13:04.440Z,98203.53
2023-01-17T16:15:31.253Z,98208.53
2023-01-17T16:17:58.082Z,98201.84
2023-01-17T16:20:25.205Z,98209.44
2023-01-17T16:22:52.392Z,98218.63
2023-01-17T16:25:19.322Z,98216.66
2023-01-17T16:27:46.073Z,98228.38
2023-01-17T16:30:15.052Z,98226.09
2023-01-17T16:32:42.347Z,98223.31
2023-01-17T16:35:09.107Z,98225.97
2023-01-17T16:37:35.831Z,98227.28
2023-01-17T16:40:02.572Z,98226.44
2023-01-17T16:42:29.417Z,98228.88
2023-01-17T16:44:56.298Z,98240.00
2023-01-17T16:47:23.139Z,98236.66
2023-01-17T16:49:50.056Z,98239.34
2023-01-17T16:52:16.823Z,98239.91
2023-01-17T16:54:43.561Z,98243.88
2023-01-17T16:57:10.470Z,98241.47
2023-01-17T16:59:50.111Z,98248.41
2023-01-17T17:02:18.535Z,98237.34
2023-01-17T17:04:45.325Z,98244.63
2023-01-17T17:07:12.117Z,98242.09
2023-01-17T17:09:38.894Z,98248.91
2023-01-17T17:12:05.729Z,98251.34
2023-01-17T17:14:32.555Z,98259.81
2023-01-17T17:17:02.046Z,98258.91
2023-01-17T17:19:28.820Z,98253.63
2023-01-17T17:21:55.554Z,98264.84
2023-01-17T17:24:22.296Z,98255.44
2023-01-17T17:26:49.034Z,98255.34
2023-01-17T17:29:15.920Z,98242.41
2023-01-17T17:31:42.670Z,98245.13
2023-01-17T17:34:09.418Z,98241.72
2023-01-17T17:36:36.335Z,98248.25
2023-01-17T17:39:03.550Z,98251.94
2023-01-17T17:41:30.382Z,98263.19
2023-01-17T17:43:57.206Z,98259.22
2023-01-17T17:46:24.059Z,98265.78
2023-01-17T17:48:50.820Z,98268.44
2023-01-17T17:51:17.547Z,98271.69
2023-01-17T17:53:44.291Z,98273.84
2023-01-17T17:56:11.035Z,98268.31
2023-01-17T17:58:37.850Z,98263.28
2023-01-17T18:01:04.663Z,98262.38
2023-01-17T18:03:31.460Z,98278.00
2023-01-17T18:05:58.201Z,98284.22
2023-01-17T18:08:24.947Z,98280.06
2023-01-17T18:10:51.716Z,98275.91
2023-01-17T18:13:18.602Z,98261.81
2023-01-17T18:15:45.370Z,98263.22
2023-01-17T18:18:12.099Z,98276.81
2023-01-17T18:20:40.026Z,98271.94
2023-01-17T18:23:06.760Z,98268.66
2023-01-17T18:25:35.593Z,98270.78
2023-01-17T18:28:03.126Z,98275.09
2023-01-17T18:30:34.836Z,98274.50
2023-01-17T18:33:01.714Z,98278.81
2023-01-17T18:35:28.503Z,98282.59
2023-01-17T18:37:55.479Z,98281.72
2023-01-17T18:40:22.334Z,98265.72
2023-01-17T18:42:49.088Z,98265.91
2023-01-17T18:45:15.920Z,98265.56
2023-01-17T18:47:42.646Z,98274.09
2023-01-17T18:50:09.398Z,98280.03
2023-01-17T18:52:36.956Z,98272.00
2023-01-17T18:55:03.698Z,98276.22
2023-01-17T18:57:30.509Z,98281.75
2023-01-17T18:59:57.487Z,98281.69
2023-01-17T19:02:24.288Z,98282.91
2023-01-17T19:04:51.020Z,98285.59
2023-01-17T19:07:17.848Z,98286.34
2023-01-17T19:09:44.664Z,98295.34
2023-01-17T19:12:11.397Z,98296.97
2023-01-17T19:14:38.190Z,98297.44
2023-01-17T19:17:05.123Z,98291.63
2023-01-17T19:19:31.869Z,98303.94
2023-01-17T19:21:58.622Z,98310.75
2023-01-17T19:24:25.631Z,98317.56
2023-01-17T19:26:53.197Z,98324.63
2023-01-17T19:29:20.078Z,98324.28
2023-01-17T19:31:46.881Z,98320.63
2023-01-17T19:34:14.560Z,98315.91
2023-01-17T19:36:41.359Z,98327.03
2023-01-17T19:39:09.282Z,98324.16
2023-01-17T19:41:36.096Z,98325.63
2023-01-17T19:44:03.060Z,98322.09
2023-01-17T19:46:29.807Z,98314.06
2023-01-17T19:48:56.567Z,98314.03
2023-01-17T19:51:23.323Z,98320.03
2023-01-17T19:53:50.062Z,98325.19
2023-01-17T19:56:16.797Z,98324.06
2023-01-17T19:58:43.548Z,98321.53
2023-01-17T20:01:10.490Z,98325.84
2023-01-17T20:03:37.555Z,98319.22
2023-01-17T20:06:04.350Z,98330.69
2023-01-17T20:08:31.174Z,98332.28
2023-01-17T20:10:57.909Z,98334.56
2023-01-17T20:13:25.132Z,98328.81
2023-01-17T20:15:51.880Z,98336.31
2023-01-17T20:18:19.285Z,98337.31
2023-01-17T20:20:56.929Z,98339.34
2023-01-17T20:23:24.333Z,98343.19
2023-01-17T20:25:51.108Z,98351.41
2023-01-17T20:28:17.859Z,98345.84
2023-01-17T20:30:45.454Z,98342.22
2023-01-17T20:33:14.866Z,98343.84
2023-01-17T20:35:41.605Z,98355.03
2023-01-17T20:38:10.303Z,98355.03
2023-01-17T20:40:37.110Z,98360.75
2023-01-17T20:43:03.922Z,98362.09
2023-01-17T20:45:30.761Z,98359.28
2023-01-17T20:47:57.975Z,98368.03
2023-01-17T20:50:24.938Z,98368.25
2023-01-17T20:52:51.681Z,98377.97
2023-01-17T20:55:18.435Z,98378.81
2023-01-17T20:57:45.179Z,98386.31
2023-01-17T21:00:12.134Z,98388.09
2023-01-17T21:02:38.923Z,98387.00
2023-01-17T21:05:05.740Z,98390.91
2023-01-17T21:07:32.485Z,98398.81
2023-01-17T21:09:59.240Z,98407.88
2023-01-17T21:12:25.960Z,98419.91
2023-01-17T21:14:53.537Z,98418.25
2023-01-17T21:17:20.306Z,98432.22
2023-01-17T21:19:47.036Z,98428.91
2023-01-17T21:22:16.525Z,98431.63
2023-01-17T21:24:43.267Z,98439.00
2023-01-17T21:27:12.249Z,98446.09
2023-01-17T21:29:39.074Z,98451.59
2023-01-17T21:32:08.620Z,98442.81
2023-01-17T21:34:35.399Z,98450.47
2023-01-17T21:37:02.223Z,98445.66
2023-01-17T21:39:29.240Z,98452.09
2023-01-17T21:41:55.973Z,98453.06
2023-01-17T21:44:22.813Z,98451.53
2023-01-17T21:46:53.467Z,98450.03
2023-01-17T21:49:21.916Z,98459.44
2023-01-17T21:51:54.606Z,98456.19
2023-01-17T21:54:41.332Z,98463.56
2023-01-17T21:57:27.187Z,98463.53
2023-01-17T21:59:53.933Z,98459.97
2023-01-17T22:02:20.750Z,98457.75
2023-01-17T22:04:47.555Z,98460.19
2023-01-17T22:07:14.355Z,98462.38
2023-01-17T22:09:41.101Z,98471.38
2023-01-17T22:12:07.843Z,98465.28
2023-01-17T22:14:34.575Z,98463.38
2023-01-17T22:17:01.323Z,98469.66
2023-01-17T22:19:28.125Z,98460.28
2023-01-17T22:21:54.899Z,98460.19
2023-01-17T22:24:22.258Z,98463.75
2023-01-17T22:26:49.002Z,98461.28
2023-01-17T22:29:18.640Z,98463.00
2023-01-17T22:31:45.451Z,98464.59
2023-01-17T22:34:13.438Z,98458.91
2023-01-17T22:36:40.197Z,98463.81
2023-01-17T22:39:06.992Z,98465.44
2023-01-17T22:41:35.089Z,98456.44
2023-01-17T22:44:08.368Z,98459.13
2023-01-17T22:46:36.971Z,98458.53
2023-01-17T22:49:03.963Z,98459.63
2023-01-17T22:51:30.749Z,98451.09
2023-01-17T22:53:57.551Z,98444.47
2023-01-17T22:56:24.311Z,98438.94
2023-01-17T22:58:51.103Z,98432.84
2023-01-17T23:01:17.908Z,98432.47
2023-01-17T23:03:44.722Z,98436.22
2023-01-17T23:06:11.589Z,98430.66
2023-01-17T23:08:38.392Z,98430.16
2023-01-17T23:11:23.942Z,98424.31
2023-01-17T23:13:50.690Z,98420.25
2023-01-17T23:16:36.043Z,98425.13
2023-01-17T23:19:21.278Z,98427.56
2023-01-17T23:22:06.617Z,98426.75
2023-01-17T23:24:33.370Z,98435.22
2023-01-17T23:27:18.767Z,98428.59
2023-01-17T23:29:45.586Z,98414.84
2023-01-17T23:32:12.341Z,98412.63
2023-01-17T23:34:39.071Z,98414.19
2023-01-17T23:37:05.828Z,98406.44
2023-01-17T23:39:32.582Z,98404.78
2023-01-17T23:42:18.105Z,98405.63
2023-01-17T23:44:44.839Z,98403.38
2023-01-17T23:47:11.648Z,98402.22
2023-01-17T23:49:38.380Z,98388.41
2023-01-17T23:52:05.199Z,98387.84
2023-01-17T23:54:31.976Z,98392.00
2023-01-17T23:56:58.752Z,98380.44
2023-01-17T23:59:25.524Z,98384.78
